Disclaimer

Please do not use the information listed here in-flight or in-navigation, as they are not provided to us by the airports but are provided by volunteers, so they might be outdated.

Search


Regions


Airport information page

Radio informations:
MACEIO TWR - 118.25 MHz
MACEIO APP - 119.25 MHz

Airport informations:
Latitude: 09° 30' 38.91" S
Longitude: 035° 47' 30.04" W
Elevation: 387 feet - 118 meters
Operating hours: 24 hour operations
Operating agency: Civil government, landing fees and diplomatic clearance may be required
Timezone: UTC-3(-2DT)
Fuel: Jet A1, without icing nhibitor.

100/130 octane gasoline, leaded, MIL-L-5572F (GREEN)

Runway information:
12/30 - 8537 x 148 feet< - >2602 x 45 meters

Recent METARs:
SBMO 202000Z 12014KT 9999 BKN030 27/21 Q1013
SBMO 202000Z 12014KT 9999 BKN030 27/21 Q1013
SBMO 202100Z 10012KT 9999 FEW023 26/21 Q1014

Airport on the map: